sensor_id;sensor_type;location;lat;lon;timestamp;pressure;altitude;pressure_sealevel;temperature;humidity
55990;BME280;41875;55.806;38.082;2023-05-20T00:00:53;100355.50;;;11.55;51.39
55990;BME280;41875;55.806;38.082;2023-05-20T00:03:22;100355.53;;;11.45;51.48
55990;BME280;41875;55.806;38.082;2023-05-20T00:05:52;100353.56;;;11.47;51.49
55990;BME280;41875;55.806;38.082;2023-05-20T00:08:21;100347.72;;;11.43;51.79
55990;BME280;41875;55.806;38.082;2023-05-20T00:10:52;100341.56;;;11.43;51.64
55990;BME280;41875;55.806;38.082;2023-05-20T00:13:20;100331.09;;;11.51;51.52
55990;BME280;41875;55.806;38.082;2023-05-20T00:15:51;100343.94;;;11.36;51.94
55990;BME280;41875;55.806;38.082;2023-05-20T00:18:20;100339.88;;;11.52;51.73
55990;BME280;41875;55.806;38.082;2023-05-20T00:20:49;100336.38;;;11.51;51.45
55990;BME280;41875;55.806;38.082;2023-05-20T00:23:19;100323.97;;;11.42;51.66
55990;BME280;41875;55.806;38.082;2023-05-20T00:25:48;100337.81;;;11.46;51.72
55990;BME280;41875;55.806;38.082;2023-05-20T00:28:16;100334.59;;;11.42;51.98
55990;BME280;41875;55.806;38.082;2023-05-20T00:30:45;100338.97;;;11.33;52.15
55990;BME280;41875;55.806;38.082;2023-05-20T00:33:14;100340.84;;;11.51;52.02
55990;BME280;41875;55.806;38.082;2023-05-20T00:35:42;100335.28;;;11.44;51.95
55990;BME280;41875;55.806;38.082;2023-05-20T00:38:11;100344.59;;;11.58;51.59
55990;BME280;41875;55.806;38.082;2023-05-20T00:40:41;100341.66;;;11.61;51.60
55990;BME280;41875;55.806;38.082;2023-05-20T00:43:10;100339.16;;;11.50;51.75
55990;BME280;41875;55.806;38.082;2023-05-20T00:45:38;100340.31;;;11.47;51.94
55990;BME280;41875;55.806;38.082;2023-05-20T00:48:07;100345.88;;;11.44;52.27
55990;BME280;41875;55.806;38.082;2023-05-20T00:50:35;100341.97;;;11.48;51.91
55990;BME280;41875;55.806;38.082;2023-05-20T00:53:05;100336.00;;;11.36;52.25
55990;BME280;41875;55.806;38.082;2023-05-20T00:55:34;100335.03;;;11.37;52.45
55990;BME280;41875;55.806;38.082;2023-05-20T00:58:04;100340.72;;;11.52;52.17
55990;BME280;41875;55.806;38.082;2023-05-20T01:00:33;100335.19;;;11.26;52.78
55990;BME280;41875;55.806;38.082;2023-05-20T01:03:02;100336.44;;;11.32;53.03
55990;BME280;41875;55.806;38.082;2023-05-20T01:05:31;100337.38;;;11.40;52.79
55990;BME280;41875;55.806;38.082;2023-05-20T01:07:59;100341.28;;;11.46;52.40
55990;BME280;41875;55.806;38.082;2023-05-20T01:10:29;100337.44;;;11.68;51.94
55990;BME280;41875;55.806;38.082;2023-05-20T01:13:00;100332.16;;;11.58;52.18
55990;BME280;41875;55.806;38.082;2023-05-20T01:15:34;100328.63;;;11.30;52.95
55990;BME280;41875;55.806;38.082;2023-05-20T01:18:07;100335.41;;;11.52;52.62
55990;BME280;41875;55.806;38.082;2023-05-20T01:20:36;100337.81;;;11.46;52.67
55990;BME280;41875;55.806;38.082;2023-05-20T01:23:07;100330.22;;;11.51;52.79
55990;BME280;41875;55.806;38.082;2023-05-20T01:25:35;100326.38;;;11.73;52.29
55990;BME280;41875;55.806;38.082;2023-05-20T01:28:04;100326.63;;;12.17;51.12
55990;BME280;41875;55.806;38.082;2023-05-20T01:30:38;100336.81;;;11.56;52.48
55990;BME280;41875;55.806;38.082;2023-05-20T01:33:11;100336.41;;;11.41;53.02
55990;BME280;41875;55.806;38.082;2023-05-20T01:35:41;100331.94;;;11.42;53.38
55990;BME280;41875;55.806;38.082;2023-05-20T01:38:12;100324.91;;;11.51;53.13
55990;BME280;41875;55.806;38.082;2023-05-20T01:40:42;100334.13;;;11.09;54.40
55990;BME280;41875;55.806;38.082;2023-05-20T01:43:11;100333.97;;;11.10;54.64
55990;BME280;41875;55.806;38.082;2023-05-20T01:45:44;100326.72;;;11.12;54.80
55990;BME280;41875;55.806;38.082;2023-05-20T01:48:12;100345.50;;;11.39;54.02
55990;BME280;41875;55.806;38.082;2023-05-20T01:50:41;100341.94;;;11.58;53.53
55990;BME280;41875;55.806;38.082;2023-05-20T01:53:11;100334.47;;;11.43;53.96
55990;BME280;41875;55.806;38.082;2023-05-20T01:55:40;100330.59;;;11.28;54.49
55990;BME280;41875;55.806;38.082;2023-05-20T01:58:09;100331.09;;;11.51;53.99
55990;BME280;41875;55.806;38.082;2023-05-20T02:00:38;100337.69;;;11.27;54.84
55990;BME280;41875;55.806;38.082;2023-05-20T02:03:06;100339.44;;;11.56;53.91
55990;BME280;41875;55.806;38.082;2023-05-20T02:05:35;100339.75;;;11.81;53.39
55990;BME280;41875;55.806;38.082;2023-05-20T02:08:04;100335.47;;;11.70;53.93
55990;BME280;41875;55.806;38.082;2023-05-20T02:10:34;100329.56;;;11.49;54.26
55990;BME280;41875;55.806;38.082;2023-05-20T02:13:03;100335.97;;;11.46;54.51
55990;BME280;41875;55.806;38.082;2023-05-20T02:15:33;100334.69;;;11.60;54.36
55990;BME280;41875;55.806;38.082;2023-05-20T02:18:02;100345.34;;;11.40;54.84
55990;BME280;41875;55.806;38.082;2023-05-20T02:20:34;100323.50;;;11.19;55.72
55990;BME280;41875;55.806;38.082;2023-05-20T02:23:03;100328.75;;;11.28;55.70
55990;BME280;41875;55.806;38.082;2023-05-20T02:25:34;100329.47;;;11.68;54.37
55990;BME280;41875;55.806;38.082;2023-05-20T02:28:03;100327.16;;;11.08;56.13
55990;BME280;41875;55.806;38.082;2023-05-20T02:30:36;100335.66;;;11.02;57.00
55990;BME280;41875;55.806;38.082;2023-05-20T02:33:05;100323.19;;;11.22;56.22
55990;BME280;41875;55.806;38.082;2023-05-20T02:35:35;100344.34;;;11.51;55.42
55990;BME280;41875;55.806;38.082;2023-05-20T02:38:04;100333.75;;;11.41;55.79
55990;BME280;41875;55.806;38.082;2023-05-20T02:40:34;100337.09;;;11.53;55.31
55990;BME280;41875;55.806;38.082;2023-05-20T02:43:03;100338.84;;;11.63;55.20
55990;BME280;41875;55.806;38.082;2023-05-20T02:45:34;100340.63;;;11.34;56.06
55990;BME280;41875;55.806;38.082;2023-05-20T02:48:05;100330.03;;;11.34;56.22
55990;BME280;41875;55.806;38.082;2023-05-20T02:50:37;100339.22;;;11.40;56.40
55990;BME280;41875;55.806;38.082;2023-05-20T02:53:07;100337.34;;;11.60;55.80
55990;BME280;41875;55.806;38.082;2023-05-20T02:55:37;100337.88;;;12.01;54.51
55990;BME280;41875;55.806;38.082;2023-05-20T02:58:05;100338.88;;;12.18;53.95
55990;BME280;41875;55.806;38.082;2023-05-20T03:00:34;100345.22;;;12.17;54.29
55990;BME280;41875;55.806;38.082;2023-05-20T03:03:07;100350.00;;;12.32;53.86
55990;BME280;41875;55.806;38.082;2023-05-20T03:05:36;100343.72;;;11.95;54.77
55990;BME280;41875;55.806;38.082;2023-05-20T03:08:07;100343.34;;;11.62;55.92
55990;BME280;41875;55.806;38.082;2023-05-20T03:10:38;100343.47;;;13.78;49.76
55990;BME280;41875;55.806;38.082;2023-05-20T03:13:07;100341.50;;;12.00;54.79
55990;BME280;41875;55.806;38.082;2023-05-20T03:15:37;100347.09;;;12.25;54.39
55990;BME280;41875;55.806;38.082;2023-05-20T03:18:06;100342.56;;;12.17;54.76
55990;BME280;41875;55.806;38.082;2023-05-20T03:20:38;100357.91;;;11.86;55.65
55990;BME280;41875;55.806;38.082;2023-05-20T03:23:08;100347.91;;;11.70;55.92
55990;BME280;41875;55.806;38.082;2023-05-20T03:25:39;100342.75;;;11.96;55.29
55990;BME280;41875;55.806;38.082;2023-05-20T03:28:08;100344.28;;;11.71;56.23
55990;BME280;41875;55.806;38.082;2023-05-20T03:30:37;100343.47;;;11.61;56.59
55990;BME280;41875;55.806;38.082;2023-05-20T03:33:09;100354.09;;;11.51;57.63
55990;BME280;41875;55.806;38.082;2023-05-20T03:35:38;100361.03;;;11.71;56.65
55990;BME280;41875;55.806;38.082;2023-05-20T03:38:06;100358.53;;;11.70;56.69
55990;BME280;41875;55.806;38.082;2023-05-20T03:40:38;100352.97;;;12.01;55.81
55990;BME280;41875;55.806;38.082;2023-05-20T03:43:07;100344.06;;;12.20;55.48
55990;BME280;41875;55.806;38.082;2023-05-20T03:45:36;100346.25;;;11.97;56.33
55990;BME280;41875;55.806;38.082;2023-05-20T03:48:06;100354.28;;;12.15;55.79
55990;BME280;41875;55.806;38.082;2023-05-20T03:50:34;100344.38;;;12.35;54.90
55990;BME280;41875;55.806;38.082;2023-05-20T03:53:03;100350.09;;;12.40;54.77
55990;BME280;41875;55.806;38.082;2023-05-20T03:55:39;100333.16;;;12.23;55.23
55990;BME280;41875;55.806;38.082;2023-05-20T03:58:10;100344.63;;;12.60;54.33
55990;BME280;41875;55.806;38.082;2023-05-20T04:00:39;100344.63;;;12.78;54.06
55990;BME280;41875;55.806;38.082;2023-05-20T04:03:08;100320.16;;;12.56;54.53
55990;BME280;41875;55.806;38.082;2023-05-20T04:05:38;100343.78;;;12.41;55.15
55990;BME280;41875;55.806;38.082;2023-05-20T04:08:15;100350.00;;;12.86;54.18
55990;BME280;41875;55.806;38.082;2023-05-20T04:10:46;100346.00;;;12.82;53.89
55990;BME280;41875;55.806;38.082;2023-05-20T04:13:15;100353.97;;;12.64;54.75
55990;BME280;41875;55.806;38.082;2023-05-20T04:15:44;100349.34;;;13.10;53.49
55990;BME280;41875;55.806;38.082;2023-05-20T04:18:13;100344.84;;;12.85;53.56
55990;BME280;41875;55.806;38.082;2023-05-20T04:20:41;100342.63;;;12.44;54.79
55990;BME280;41875;55.806;38.082;2023-05-20T04:23:13;100335.28;;;12.74;54.29
55990;BME280;41875;55.806;38.082;2023-05-20T04:25:42;100354.06;;;12.72;54.60
55990;BME280;41875;55.806;38.082;2023-05-20T04:28:13;100340.16;;;12.60;55.05
55990;BME280;41875;55.806;38.082;2023-05-20T04:30:42;100342.03;;;12.68;54.98
55990;BME280;41875;55.806;38.082;2023-05-20T04:33:12;100345.31;;;12.80;54.47
55990;BME280;41875;55.806;38.082;2023-05-20T04:35:41;100347.81;;;12.63;55.04
55990;BME280;41875;55.806;38.082;2023-05-20T04:38:10;100343.47;;;12.80;54.52
55990;BME280;41875;55.806;38.082;2023-05-20T04:40:45;100334.19;;;13.29;53.33
55990;BME280;41875;55.806;38.082;2023-05-20T04:43:15;100339.78;;;13.18;53.41
55990;BME280;41875;55.806;38.082;2023-05-20T04:45:45;100329.78;;;12.93;53.72
55990;BME280;41875;55.806;38.082;2023-05-20T04:48:16;100329.56;;;12.87;54.40
55990;BME280;41875;55.806;38.082;2023-05-20T04:50:45;100332.66;;;13.45;52.82
55990;BME280;41875;55.806;38.082;2023-05-20T04:53:14;100330.97;;;13.70;52.45
55990;BME280;41875;55.806;38.082;2023-05-20T04:55:44;100333.41;;;13.37;52.77
55990;BME280;41875;55.806;38.082;2023-05-20T04:58:16;100337.31;;;13.77;52.05
55990;BME280;41875;55.806;38.082;2023-05-20T05:00:45;100338.84;;;13.88;51.78
55990;BME280;41875;55.806;38.082;2023-05-20T05:03:18;100352.84;;;13.55;52.51
55990;BME280;41875;55.806;38.082;2023-05-20T05:05:47;100342.09;;;14.08;50.73
55990;BME280;41875;55.806;38.082;2023-05-20T05:08:16;100357.56;;;14.05;51.22
55990;BME280;41875;55.806;38.082;2023-05-20T05:10:49;100350.63;;;13.77;52.05
55990;BME280;41875;55.806;38.082;2023-05-20T05:13:20;100356.47;;;13.81;51.76
55990;BME280;41875;55.806;38.082;2023-05-20T05:15:57;100347.84;;;13.87;51.66
55990;BME280;41875;55.806;38.082;2023-05-20T05:18:27;100349.63;;;14.13;50.99
55990;BME280;41875;55.806;38.082;2023-05-20T05:20:59;100349.72;;;14.54;50.33
55990;BME280;41875;55.806;38.082;2023-05-20T05:23:28;100342.75;;;14.02;51.48
55990;BME280;41875;55.806;38.082;2023-05-20T05:25:57;100351.97;;;13.81;51.84
55990;BME280;41875;55.806;38.082;2023-05-20T05:28:27;100342.63;;;14.20;50.94
55990;BME280;41875;55.806;38.082;2023-05-20T05:30:57;100340.13;;;13.76;52.31
55990;BME280;41875;55.806;38.082;2023-05-20T05:33:25;100341.41;;;13.98;51.70
55990;BME280;41875;55.806;38.082;2023-05-20T05:35:54;100342.34;;;14.40;50.63
55990;BME280;41875;55.806;38.082;2023-05-20T05:38:26;100358.34;;;14.40;50.24
55990;BME280;41875;55.806;38.082;2023-05-20T05:40:54;100343.00;;;14.25;51.23
55990;BME280;41875;55.806;38.082;2023-05-20T05:43:23;100354.16;;;14.21;50.83
55990;BME280;41875;55.806;38.082;2023-05-20T05:45:54;100350.22;;;14.58;50.31
55990;BME280;41875;55.806;38.082;2023-05-20T05:48:24;100343.06;;;15.08;48.74
55990;BME280;41875;55.806;38.082;2023-05-20T05:50:52;100341.44;;;14.99;48.65
55990;BME280;41875;55.806;38.082;2023-05-20T05:53:21;100335.53;;;14.54;49.46
55990;BME280;41875;55.806;38.082;2023-05-20T05:55:51;100339.00;;;14.46;49.77
55990;BME280;41875;55.806;38.082;2023-05-20T05:58:19;100328.28;;;14.97;48.65
55990;BME280;41875;55.806;38.082;2023-05-20T06:00:50;100343.06;;;15.24;47.95
55990;BME280;41875;55.806;38.082;2023-05-20T06:03:23;100344.25;;;15.05;48.96
55990;BME280;41875;55.806;38.082;2023-05-20T06:05:52;100342.94;;;14.76;49.10
55990;BME280;41875;55.806;38.082;2023-05-20T06:08:21;100351.44;;;14.88;49.48
55990;BME280;41875;55.806;38.082;2023-05-20T06:10:50;100341.25;;;14.75;49.27
55990;BME280;41875;55.806;38.082;2023-05-20T06:13:19;100336.38;;;15.20;48.22
55990;BME280;41875;55.806;38.082;2023-05-20T06:15:48;100328.44;;;15.60;47.52
55990;BME280;41875;55.806;38.082;2023-05-20T06:18:17;100317.97;;;15.50;47.32
55990;BME280;41875;55.806;38.082;2023-05-20T06:20:53;100333.03;;;15.99;46.80
55990;BME280;41875;55.806;38.082;2023-05-20T06:23:23;100339.31;;;15.59;47.15
55990;BME280;41875;55.806;38.082;2023-05-20T06:26:03;100331.72;;;15.22;48.18
55990;BME280;41875;55.806;38.082;2023-05-20T06:28:32;100369.91;;;15.15;47.88
55990;BME280;41875;55.806;38.082;2023-05-20T06:31:01;100345.63;;;15.66;47.30
55990;BME280;41875;55.806;38.082;2023-05-20T06:33:32;100341.13;;;15.66;46.94
55990;BME280;41875;55.806;38.082;2023-05-20T06:36:07;100347.97;;;15.69;47.59
55990;BME280;41875;55.806;38.082;2023-05-20T06:38:41;100337.03;;;15.95;47.00
55990;BME280;41875;55.806;38.082;2023-05-20T06:41:13;100359.47;;;15.86;46.84
55990;BME280;41875;55.806;38.082;2023-05-20T06:43:42;100336.53;;;16.32;46.26
55990;BME280;41875;55.806;38.082;2023-05-20T06:46:29;100337.16;;;16.10;46.36
55990;BME280;41875;55.806;38.082;2023-05-20T06:49:03;100333.31;;;15.65;47.65
55990;BME280;41875;55.806;38.082;2023-05-20T06:51:33;100346.47;;;16.14;46.19
55990;BME280;41875;55.806;38.082;2023-05-20T06:54:03;100336.66;;;16.07;46.01
55990;BME280;41875;55.806;38.082;2023-05-20T06:56:35;100331.19;;;16.32;45.53
55990;BME280;41875;55.806;38.082;2023-05-20T06:59:04;100342.50;;;16.34;45.45
55990;BME280;41875;55.806;38.082;2023-05-20T07:01:34;100333.25;;;16.68;44.46
55990;BME280;41875;55.806;38.082;2023-05-20T07:04:03;100333.34;;;16.59;45.39
55990;BME280;41875;55.806;38.082;2023-05-20T07:06:34;100348.75;;;16.49;44.81
55990;BME280;41875;55.806;38.082;2023-05-20T07:09:03;100343.50;;;16.64;44.75
55990;BME280;41875;55.806;38.082;2023-05-20T07:11:32;100320.50;;;16.93;43.44
55990;BME280;41875;55.806;38.082;2023-05-20T07:14:00;100345.28;;;15.77;46.14
55990;BME280;41875;55.806;38.082;2023-05-20T07:16:31;100322.25;;;15.68;46.66
55990;BME280;41875;55.806;38.082;2023-05-20T07:19:01;100325.41;;;16.20;44.59
55990;BME280;41875;55.806;38.082;2023-05-20T07:21:29;100338.34;;;17.24;43.03
55990;BME280;41875;55.806;38.082;2023-05-20T07:24:20;100354.94;;;16.26;43.83
55990;BME280;41875;55.806;38.082;2023-05-20T07:26:48;100321.81;;;16.04;43.75
55990;BME280;41875;55.806;38.082;2023-05-20T07:29:17;100331.72;;;16.50;43.13
55990;BME280;41875;55.806;38.082;2023-05-20T07:31:46;100325.34;;;16.51;43.02
55990;BME280;41875;55.806;38.082;2023-05-20T07:34:16;100325.50;;;17.79;40.53
55990;BME280;41875;55.806;38.082;2023-05-20T07:36:45;100308.28;;;16.75;42.45
55990;BME280;41875;55.806;38.082;2023-05-20T07:39:14;100346.69;;;16.83;42.68
55990;BME280;41875;55.806;38.082;2023-05-20T07:41:44;100342.69;;;16.64;42.18
55990;BME280;41875;55.806;38.082;2023-05-20T07:44:13;100329.88;;;16.74;40.88
55990;BME280;41875;55.806;38.082;2023-05-20T07:46:46;100334.75;;;16.94;40.27
55990;BME280;41875;55.806;38.082;2023-05-20T07:49:16;100322.56;;;17.59;39.44
55990;BME280;41875;55.806;38.082;2023-05-20T07:51:47;100320.53;;;17.61;40.79
55990;BME280;41875;55.806;38.082;2023-05-20T07:54:15;100338.44;;;17.61;40.13
55990;BME280;41875;55.806;38.082;2023-05-20T07:56:48;100331.16;;;17.85;38.32
55990;BME280;41875;55.806;38.082;2023-05-20T07:59:17;100348.50;;;17.29;39.29
55990;BME280;41875;55.806;38.082;2023-05-20T08:01:48;100340.47;;;17.59;38.51
55990;BME280;41875;55.806;38.082;2023-05-20T08:04:19;100319.13;;;17.80;38.07
55990;BME280;41875;55.806;38.082;2023-05-20T08:06:47;100336.19;;;17.94;37.34
55990;BME280;41875;55.806;38.082;2023-05-20T08:09:25;100327.22;;;18.17;37.31
55990;BME280;41875;55.806;38.082;2023-05-20T08:11:56;100307.66;;;17.87;37.19
55990;BME280;41875;55.806;38.082;2023-05-20T08:14:28;100332.25;;;17.45;38.28
55990;BME280;41875;55.806;38.082;2023-05-20T08:16:57;100329.88;;;17.50;38.31
55990;BME280;41875;55.806;38.082;2023-05-20T08:19:25;100326.81;;;17.39;39.21
55990;BME280;41875;55.806;38.082;2023-05-20T08:21:54;100313.88;;;17.42;38.11
55990;BME280;41875;55.806;38.082;2023-05-20T08:24:23;100284.00;;;17.75;37.59
55990;BME280;41875;55.806;38.082;2023-05-20T08:26:52;100325.94;;;17.08;38.69
55990;BME280;41875;55.806;38.082;2023-05-20T08:29:25;100319.41;;;17.41;38.49
55990;BME280;41875;55.806;38.082;2023-05-20T08:31:53;100315.50;;;17.88;38.14
55990;BME280;41875;55.806;38.082;2023-05-20T08:34:24;100341.63;;;16.88;38.53
55990;BME280;41875;55.806;38.082;2023-05-20T08:36:52;100323.00;;;17.33;38.36
55990;BME280;41875;55.806;38.082;2023-05-20T08:39:21;100316.78;;;16.79;37.73
55990;BME280;41875;55.806;38.082;2023-05-20T08:41:50;100298.91;;;17.33;38.09
55990;BME280;41875;55.806;38.082;2023-05-20T08:44:20;100327.53;;;17.17;38.22
55990;BME280;41875;55.806;38.082;2023-05-20T08:46:50;100320.06;;;18.24;36.58
55990;BME280;41875;55.806;38.082;2023-05-20T08:49:19;100317.38;;;17.58;37.89
55990;BME280;41875;55.806;38.082;2023-05-20T08:51:48;100328.28;;;17.41;38.38
55990;BME280;41875;55.806;38.082;2023-05-20T08:54:16;100324.44;;;17.05;39.52
55990;BME280;41875;55.806;38.082;2023-05-20T08:56:47;100313.59;;;17.52;38.29
55990;BME280;41875;55.806;38.082;2023-05-20T08:59:16;100325.91;;;17.61;38.57
55990;BME280;41875;55.806;38.082;2023-05-20T09:01:46;100311.56;;;17.09;39.87
55990;BME280;41875;55.806;38.082;2023-05-20T09:04:15;100322.91;;;17.71;39.20
55990;BME280;41875;55.806;38.082;2023-05-20T09:06:45;100327.00;;;17.37;38.75
55990;BME280;41875;55.806;38.082;2023-05-20T09:09:14;100317.75;;;17.85;37.60
55990;BME280;41875;55.806;38.082;2023-05-20T09:11:43;100315.22;;;18.13;36.99
55990;BME280;41875;55.806;38.082;2023-05-20T09:14:11;100330.22;;;17.62;37.73
55990;BME280;41875;55.806;38.082;2023-05-20T09:16:40;100328.56;;;17.46;37.88
55990;BME280;41875;55.806;38.082;2023-05-20T09:19:09;100322.13;;;17.02;38.81
55990;BME280;41875;55.806;38.082;2023-05-20T09:21:40;100327.88;;;16.91;39.70
55990;BME280;41875;55.806;38.082;2023-05-20T09:24:09;100315.66;;;16.50;40.46
55990;BME280;41875;55.806;38.082;2023-05-20T09:26:37;100324.22;;;17.30;39.25
55990;BME280;41875;55.806;38.082;2023-05-20T09:29:06;100331.72;;;16.97;40.25
55990;BME280;41875;55.806;38.082;2023-05-20T09:31:37;100320.31;;;16.56;40.92
55990;BME280;41875;55.806;38.082;2023-05-20T09:34:06;100332.31;;;16.06;42.01
55990;BME280;41875;55.806;38.082;2023-05-20T09:36:35;100333.41;;;15.88;41.45
55990;BME280;41875;55.806;38.082;2023-05-20T09:39:05;100324.56;;;16.42;40.96
55990;BME280;41875;55.806;38.082;2023-05-20T09:41:38;100348.59;;;16.19;41.96
55990;BME280;41875;55.806;38.082;2023-05-20T09:44:11;100354.50;;;16.46;41.82
55990;BME280;41875;55.806;38.082;2023-05-20T09:46:40;100339.25;;;16.23;42.10
55990;BME280;41875;55.806;38.082;2023-05-20T09:49:10;100364.50;;;16.12;42.17
55990;BME280;41875;55.806;38.082;2023-05-20T09:51:41;100354.41;;;15.99;43.09
55990;BME280;41875;55.806;38.082;2023-05-20T09:54:12;100346.59;;;16.21;42.60
55990;BME280;41875;55.806;38.082;2023-05-20T09:56:43;100341.00;;;16.39;42.10
55990;BME280;41875;55.806;38.082;2023-05-20T09:59:12;100347.81;;;16.42;42.06
55990;BME280;41875;55.806;38.082;2023-05-20T10:01:43;100350.94;;;16.22;42.70
55990;BME280;41875;55.806;38.082;2023-05-20T10:04:14;100349.63;;;15.70;43.52
55990;BME280;41875;55.806;38.082;2023-05-20T10:06:55;100357.59;;;15.95;43.18
55990;BME280;41875;55.806;38.082;2023-05-20T10:09:41;100336.25;;;15.78;43.60
55990;BME280;41875;55.806;38.082;2023-05-20T10:12:26;100347.44;;;16.22;42.52
55990;BME280;41875;55.806;38.082;2023-05-20T10:15:11;100349.66;;;16.41;41.90
55990;BME280;41875;55.806;38.082;2023-05-20T10:17:50;100345.81;;;16.44;42.12
55990;BME280;41875;55.806;38.082;2023-05-20T10:20:28;100357.44;;;16.51;41.60
55990;BME280;41875;55.806;38.082;2023-05-20T10:22:57;100365.19;;;16.46;41.06
55990;BME280;41875;55.806;38.082;2023-05-20T10:25:30;100348.19;;;16.85;39.96
55990;BME280;41875;55.806;38.082;2023-05-20T10:28:07;100377.03;;;16.75;40.24
55990;BME280;41875;55.806;38.082;2023-05-20T10:30:47;100377.22;;;17.35;39.20
55990;BME280;41875;55.806;38.082;2023-05-20T10:33:17;100369.78;;;17.07;39.75
55990;BME280;41875;55.806;38.082;2023-05-20T10:35:46;100365.09;;;17.24;38.72
55990;BME280;41875;55.806;38.082;2023-05-20T10:38:15;100370.03;;;16.97;39.23
55990;BME280;41875;55.806;38.082;2023-05-20T10:40:45;100375.41;;;17.12;38.99
55990;BME280;41875;55.806;38.082;2023-05-20T10:43:15;100347.88;;;17.42;38.84
55990;BME280;41875;55.806;38.082;2023-05-20T10:45:48;100350.16;;;17.15;39.08
55990;BME280;41875;55.806;38.082;2023-05-20T10:48:23;100377.81;;;17.60;38.50
55990;BME280;41875;55.806;38.082;2023-05-20T10:50:57;100370.97;;;18.03;37.59
55990;BME280;41875;55.806;38.082;2023-05-20T10:53:26;100355.16;;;17.93;37.94
55990;BME280;41875;55.806;38.082;2023-05-20T10:56:02;100340.56;;;17.50;37.62
55990;BME280;41875;55.806;38.082;2023-05-20T10:58:36;100360.16;;;17.51;37.95
55990;BME280;41875;55.806;38.082;2023-05-20T11:01:05;100342.81;;;17.09;37.57
55990;BME280;41875;55.806;38.082;2023-05-20T11:03:34;100352.00;;;17.44;37.17
55990;BME280;41875;55.806;38.082;2023-05-20T11:06:09;100359.03;;;17.30;37.83
55990;BME280;41875;55.806;38.082;2023-05-20T11:08:40;100360.19;;;16.89;38.48
55990;BME280;41875;55.806;38.082;2023-05-20T11:11:11;100364.75;;;17.27;37.40
55990;BME280;41875;55.806;38.082;2023-05-20T11:13:41;100383.34;;;17.89;36.20
55990;BME280;41875;55.806;38.082;2023-05-20T11:16:09;100360.72;;;17.91;35.97
55990;BME280;41875;55.806;38.082;2023-05-20T11:18:38;100354.94;;;18.24;35.17
55990;BME280;41875;55.806;38.082;2023-05-20T11:21:06;100348.09;;;18.22;34.64
55990;BME280;41875;55.806;38.082;2023-05-20T11:23:35;100364.69;;;17.65;34.88
55990;BME280;41875;55.806;38.082;2023-05-20T11:26:06;100374.66;;;17.72;34.58
55990;BME280;41875;55.806;38.082;2023-05-20T11:28:36;100366.63;;;17.72;34.42
55990;BME280;41875;55.806;38.082;2023-05-20T11:31:08;100358.31;;;18.11;32.89
55990;BME280;41875;55.806;38.082;2023-05-20T11:33:40;100361.53;;;17.62;33.96
55990;BME280;41875;55.806;38.082;2023-05-20T11:36:09;100350.44;;;17.80;34.56
55990;BME280;41875;55.806;38.082;2023-05-20T11:38:56;100363.84;;;17.95;34.30
55990;BME280;41875;55.806;38.082;2023-05-20T11:41:25;100362.00;;;18.10;34.67
55990;BME280;41875;55.806;38.082;2023-05-20T11:43:56;100366.28;;;18.41;33.71
55990;BME280;41875;55.806;38.082;2023-05-20T11:46:26;100356.28;;;18.13;34.63
55990;BME280;41875;55.806;38.082;2023-05-20T11:48:55;100348.94;;;18.22;33.73
55990;BME280;41875;55.806;38.082;2023-05-20T11:51:26;100355.19;;;18.45;33.43
55990;BME280;41875;55.806;38.082;2023-05-20T11:53:58;100366.06;;;18.06;33.63
55990;BME280;41875;55.806;38.082;2023-05-20T11:56:28;100357.59;;;18.39;33.23
55990;BME280;41875;55.806;38.082;2023-05-20T11:58:58;100349.91;;;17.70;33.33
55990;BME280;41875;55.806;38.082;2023-05-20T12:01:29;100365.22;;;17.91;33.74
55990;BME280;41875;55.806;38.082;2023-05-20T12:03:59;100350.69;;;19.17;32.08
55990;BME280;41875;55.806;38.082;2023-05-20T12:06:29;100352.19;;;19.26;31.90
55990;BME280;41875;55.806;38.082;2023-05-20T12:09:00;100361.94;;;18.84;31.81
55990;BME280;41875;55.806;38.082;2023-05-20T12:11:33;100354.66;;;18.78;31.90
55990;BME280;41875;55.806;38.082;2023-05-20T12:14:03;100362.75;;;18.41;31.47
55990;BME280;41875;55.806;38.082;2023-05-20T12:16:33;100355.47;;;18.56;31.59
55990;BME280;41875;55.806;38.082;2023-05-20T12:19:03;100362.19;;;18.67;31.85
55990;BME280;41875;55.806;38.082;2023-05-20T12:21:31;100367.94;;;18.06;34.01
55990;BME280;41875;55.806;38.082;2023-05-20T12:24:00;100370.53;;;17.69;36.18
55990;BME280;41875;55.806;38.082;2023-05-20T12:26:31;100382.03;;;17.55;36.66
55990;BME280;41875;55.806;38.082;2023-05-20T12:29:02;100367.69;;;17.32;36.97
55990;BME280;41875;55.806;38.082;2023-05-20T12:31:31;100371.19;;;17.18;37.24
55990;BME280;41875;55.806;38.082;2023-05-20T12:34:01;100376.97;;;16.83;37.77
55990;BME280;41875;55.806;38.082;2023-05-20T12:36:29;100377.41;;;16.95;36.66
55990;BME280;41875;55.806;38.082;2023-05-20T12:38:59;100356.50;;;16.67;37.25
55990;BME280;41875;55.806;38.082;2023-05-20T12:41:28;100370.13;;;16.57;37.86
55990;BME280;41875;55.806;38.082;2023-05-20T12:43:56;100372.66;;;16.19;38.40
55990;BME280;41875;55.806;38.082;2023-05-20T12:46:28;100377.44;;;16.32;37.91
55990;BME280;41875;55.806;38.082;2023-05-20T12:48:56;100367.66;;;16.48;38.14
55990;BME280;41875;55.806;38.082;2023-05-20T12:51:25;100363.28;;;16.55;37.80
55990;BME280;41875;55.806;38.082;2023-05-20T12:53:54;100378.50;;;16.54;37.63
55990;BME280;41875;55.806;38.082;2023-05-20T12:56:22;100357.09;;;16.77;37.57